sensor_id;sensor_type;location;lat;lon;timestamp;P1;durP1;ratioP1;P2;durP2;ratioP2
2175;SDS011;1094;49.902;10.876;2023-06-05T00:01:59;20.70;;;19.60;;
2175;SDS011;1094;49.902;10.876;2023-06-05T00:04:25;20.53;;;19.50;;
2175;SDS011;1094;49.902;10.876;2023-06-05T00:06:52;20.43;;;19.33;;
2175;SDS011;1094;49.902;10.876;2023-06-05T00:09:18;21.13;;;19.93;;
2175;SDS011;1094;49.902;10.876;2023-06-05T00:11:45;20.30;;;19.20;;
2175;SDS011;1094;49.902;10.876;2023-06-05T00:14:11;20.10;;;19.10;;
2175;SDS011;1094;49.902;10.876;2023-06-05T00:16:37;20.10;;;19.10;;
2175;SDS011;1094;49.902;10.876;2023-06-05T00:19:03;20.63;;;19.53;;
2175;SDS011;1094;49.902;10.876;2023-06-05T00:21:29;20.53;;;19.43;;
2175;SDS011;1094;49.902;10.876;2023-06-05T00:23:56;20.77;;;19.47;;
2175;SDS011;1094;49.902;10.876;2023-06-05T00:26:22;20.70;;;19.40;;
2175;SDS011;1094;49.902;10.876;2023-06-05T00:28:48;20.50;;;19.40;;
2175;SDS011;1094;49.902;10.876;2023-06-05T00:31:14;20.53;;;19.43;;
2175;SDS011;1094;49.902;10.876;2023-06-05T00:33:43;21.17;;;20.07;;
2175;SDS011;1094;49.902;10.876;2023-06-05T00:36:09;20.50;;;19.40;;
2175;SDS011;1094;49.902;10.876;2023-06-05T00:38:36;20.63;;;19.53;;
2175;SDS011;1094;49.902;10.876;2023-06-05T00:41:02;20.33;;;19.23;;
2175;SDS011;1094;49.902;10.876;2023-06-05T00:43:28;19.83;;;18.83;;
2175;SDS011;1094;49.902;10.876;2023-06-05T00:45:56;20.97;;;19.77;;
2175;SDS011;1094;49.902;10.876;2023-06-05T00:48:23;20.50;;;19.33;;
2175;SDS011;1094;49.902;10.876;2023-06-05T00:50:49;20.43;;;19.23;;
2175;SDS011;1094;49.902;10.876;2023-06-05T00:53:15;21.17;;;19.93;;
2175;SDS011;1094;49.902;10.876;2023-06-05T00:55:41;21.00;;;19.80;;
2175;SDS011;1094;49.902;10.876;2023-06-05T00:58:07;20.73;;;19.27;;
2175;SDS011;1094;49.902;10.876;2023-06-05T01:00:33;21.00;;;19.60;;
2175;SDS011;1094;49.902;10.876;2023-06-05T01:03:01;20.87;;;19.70;;
2175;SDS011;1094;49.902;10.876;2023-06-05T01:05:27;20.20;;;19.10;;
2175;SDS011;1094;49.902;10.876;2023-06-05T01:07:54;20.50;;;19.30;;
2175;SDS011;1094;49.902;10.876;2023-06-05T01:10:20;21.00;;;19.80;;
2175;SDS011;1094;49.902;10.876;2023-06-05T01:12:54;20.43;;;19.23;;
2175;SDS011;1094;49.902;10.876;2023-06-05T01:15:21;20.70;;;19.60;;
2175;SDS011;1094;49.902;10.876;2023-06-05T01:17:53;21.00;;;19.90;;
2175;SDS011;1094;49.902;10.876;2023-06-05T01:20:20;20.40;;;19.30;;
2175;SDS011;1094;49.902;10.876;2023-06-05T01:22:47;20.30;;;19.30;;
2175;SDS011;1094;49.902;10.876;2023-06-05T01:25:14;20.67;;;19.47;;
2175;SDS011;1094;49.902;10.876;2023-06-05T01:27:48;20.53;;;19.43;;
2175;SDS011;1094;49.902;10.876;2023-06-05T01:35:18;20.63;;;19.53;;
2175;SDS011;1094;49.902;10.876;2023-06-05T01:37:46;20.60;;;19.50;;
2175;SDS011;1094;49.902;10.876;2023-06-05T01:40:14;20.17;;;19.07;;
2175;SDS011;1094;49.902;10.876;2023-06-05T01:42:41;20.00;;;18.90;;
2175;SDS011;1094;49.902;10.876;2023-06-05T01:45:08;20.07;;;19.07;;
2175;SDS011;1094;49.902;10.876;2023-06-05T01:47:35;20.30;;;19.30;;
2175;SDS011;1094;49.902;10.876;2023-06-05T01:50:02;20.53;;;19.43;;
2175;SDS011;1094;49.902;10.876;2023-06-05T01:52:28;20.40;;;19.40;;
2175;SDS011;1094;49.902;10.876;2023-06-05T01:54:54;21.90;;;20.40;;
2175;SDS011;1094;49.902;10.876;2023-06-05T01:57:24;21.10;;;19.57;;
2175;SDS011;1094;49.902;10.876;2023-06-05T01:59:51;20.17;;;19.03;;
2175;SDS011;1094;49.902;10.876;2023-06-05T02:02:18;20.67;;;19.57;;
2175;SDS011;1094;49.902;10.876;2023-06-05T02:04:44;20.77;;;19.03;;
2175;SDS011;1094;49.902;10.876;2023-06-05T02:07:12;20.20;;;19.20;;
2175;SDS011;1094;49.902;10.876;2023-06-05T02:09:39;20.70;;;19.40;;
2175;SDS011;1094;49.902;10.876;2023-06-05T02:12:05;19.83;;;18.77;;
2175;SDS011;1094;49.902;10.876;2023-06-05T02:14:32;20.00;;;18.90;;
2175;SDS011;1094;49.902;10.876;2023-06-05T02:17:00;20.07;;;18.97;;
2175;SDS011;1094;49.902;10.876;2023-06-05T02:19:27;20.17;;;19.17;;
2175;SDS011;1094;49.902;10.876;2023-06-05T02:21:53;20.67;;;19.57;;
2175;SDS011;1094;49.902;10.876;2023-06-05T02:24:19;21.60;;;20.40;;
2175;SDS011;1094;49.902;10.876;2023-06-05T02:26:45;20.63;;;19.53;;
2175;SDS011;1094;49.902;10.876;2023-06-05T02:29:11;21.60;;;20.20;;
2175;SDS011;1094;49.902;10.876;2023-06-05T02:31:37;21.47;;;20.07;;
2175;SDS011;1094;49.902;10.876;2023-06-05T02:34:03;20.20;;;19.20;;
2175;SDS011;1094;49.902;10.876;2023-06-05T02:36:29;20.90;;;19.70;;
2175;SDS011;1094;49.902;10.876;2023-06-05T02:38:58;20.47;;;19.47;;
2175;SDS011;1094;49.902;10.876;2023-06-05T02:41:24;20.60;;;19.50;;
2175;SDS011;1094;49.902;10.876;2023-06-05T02:43:51;21.30;;;20.20;;
2175;SDS011;1094;49.902;10.876;2023-06-05T02:46:18;20.90;;;19.80;;
2175;SDS011;1094;49.902;10.876;2023-06-05T02:48:45;20.70;;;19.60;;
2175;SDS011;1094;49.902;10.876;2023-06-05T02:51:11;20.70;;;19.47;;
2175;SDS011;1094;49.902;10.876;2023-06-05T02:53:37;21.00;;;19.90;;
2175;SDS011;1094;49.902;10.876;2023-06-05T02:56:03;20.93;;;19.83;;
2175;SDS011;1094;49.902;10.876;2023-06-05T02:58:30;20.43;;;19.10;;
2175;SDS011;1094;49.902;10.876;2023-06-05T03:00:58;20.60;;;19.50;;
2175;SDS011;1094;49.902;10.876;2023-06-05T03:03:27;20.33;;;19.30;;
2175;SDS011;1094;49.902;10.876;2023-06-05T03:05:54;21.07;;;19.90;;
2175;SDS011;1094;49.902;10.876;2023-06-05T03:08:20;20.60;;;19.40;;
2175;SDS011;1094;49.902;10.876;2023-06-05T03:10:46;20.57;;;19.57;;
2175;SDS011;1094;49.902;10.876;2023-06-05T03:13:12;20.80;;;19.70;;
2175;SDS011;1094;49.902;10.876;2023-06-05T03:15:38;20.70;;;19.30;;
2175;SDS011;1094;49.902;10.876;2023-06-05T03:18:04;21.27;;;20.17;;
2175;SDS011;1094;49.902;10.876;2023-06-05T03:20:30;20.77;;;19.60;;
2175;SDS011;1094;49.902;10.876;2023-06-05T03:22:56;21.07;;;19.97;;
2175;SDS011;1094;49.902;10.876;2023-06-05T03:25:22;21.67;;;19.97;;
2175;SDS011;1094;49.902;10.876;2023-06-05T03:27:48;21.30;;;20.00;;
2175;SDS011;1094;49.902;10.876;2023-06-05T03:30:15;22.07;;;20.37;;
2175;SDS011;1094;49.902;10.876;2023-06-05T03:32:43;21.70;;;20.03;;
2175;SDS011;1094;49.902;10.876;2023-06-05T03:35:10;21.27;;;20.07;;
2175;SDS011;1094;49.902;10.876;2023-06-05T03:37:36;21.73;;;20.43;;
2175;SDS011;1094;49.902;10.876;2023-06-05T03:40:02;21.10;;;20.00;;
2175;SDS011;1094;49.902;10.876;2023-06-05T03:42:29;21.13;;;20.03;;
2175;SDS011;1094;49.902;10.876;2023-06-05T03:44:55;21.20;;;20.10;;
2175;SDS011;1094;49.902;10.876;2023-06-05T03:47:21;20.63;;;19.57;;
2175;SDS011;1094;49.902;10.876;2023-06-05T03:49:48;22.60;;;20.80;;
2175;SDS011;1094;49.902;10.876;2023-06-05T03:52:15;21.37;;;19.60;;
2175;SDS011;1094;49.902;10.876;2023-06-05T03:54:41;21.60;;;20.33;;
2175;SDS011;1094;49.902;10.876;2023-06-05T03:57:09;20.63;;;19.63;;
2175;SDS011;1094;49.902;10.876;2023-06-05T03:59:37;21.40;;;20.20;;
2175;SDS011;1094;49.902;10.876;2023-06-05T04:02:03;21.47;;;20.27;;
2175;SDS011;1094;49.902;10.876;2023-06-05T04:04:29;21.00;;;19.90;;
2175;SDS011;1094;49.902;10.876;2023-06-05T04:06:55;20.67;;;19.50;;
2175;SDS011;1094;49.902;10.876;2023-06-05T04:09:21;21.10;;;19.93;;
2175;SDS011;1094;49.902;10.876;2023-06-05T04:11:47;20.97;;;19.80;;
2175;SDS011;1094;49.902;10.876;2023-06-05T04:14:15;21.60;;;20.40;;
2175;SDS011;1094;49.902;10.876;2023-06-05T04:16:41;21.30;;;20.10;;
2175;SDS011;1094;49.902;10.876;2023-06-05T04:19:08;20.43;;;19.43;;
2175;SDS011;1094;49.902;10.876;2023-06-05T04:21:35;20.37;;;19.17;;
2175;SDS011;1094;49.902;10.876;2023-06-05T04:24:01;20.80;;;19.57;;
2175;SDS011;1094;49.902;10.876;2023-06-05T04:26:31;21.00;;;19.80;;
2175;SDS011;1094;49.902;10.876;2023-06-05T04:28:58;20.90;;;19.60;;
2175;SDS011;1094;49.902;10.876;2023-06-05T04:31:24;20.40;;;19.17;;
2175;SDS011;1094;49.902;10.876;2023-06-05T04:33:50;20.47;;;19.27;;
2175;SDS011;1094;49.902;10.876;2023-06-05T04:36:16;19.43;;;18.33;;
2175;SDS011;1094;49.902;10.876;2023-06-05T04:38:43;20.07;;;18.87;;
2175;SDS011;1094;49.902;10.876;2023-06-05T04:41:10;19.50;;;18.40;;
2175;SDS011;1094;49.902;10.876;2023-06-05T04:43:36;19.90;;;18.70;;
2175;SDS011;1094;49.902;10.876;2023-06-05T04:46:02;18.80;;;17.90;;
2175;SDS011;1094;49.902;10.876;2023-06-05T04:48:28;20.03;;;18.93;;
2175;SDS011;1094;49.902;10.876;2023-06-05T04:50:55;20.00;;;18.90;;
2175;SDS011;1094;49.902;10.876;2023-06-05T04:53:22;19.57;;;18.47;;
2175;SDS011;1094;49.902;10.876;2023-06-05T04:55:48;20.07;;;18.90;;
2175;SDS011;1094;49.902;10.876;2023-06-05T04:58:14;20.53;;;19.40;;
2175;SDS011;1094;49.902;10.876;2023-06-05T05:00:41;20.57;;;19.03;;
2175;SDS011;1094;49.902;10.876;2023-06-05T05:03:09;19.67;;;18.50;;
2175;SDS011;1094;49.902;10.876;2023-06-05T05:05:38;19.47;;;18.33;;
2175;SDS011;1094;49.902;10.876;2023-06-05T05:08:04;19.50;;;18.40;;
2175;SDS011;1094;49.902;10.876;2023-06-05T05:10:31;19.60;;;18.50;;
2175;SDS011;1094;49.902;10.876;2023-06-05T05:12:57;19.77;;;18.47;;
2175;SDS011;1094;49.902;10.876;2023-06-05T05:15:27;19.40;;;18.30;;
2175;SDS011;1094;49.902;10.876;2023-06-05T05:17:54;20.83;;;19.10;;
2175;SDS011;1094;49.902;10.876;2023-06-05T05:20:21;18.80;;;17.70;;
2175;SDS011;1094;49.902;10.876;2023-06-05T05:22:47;19.83;;;18.53;;
2175;SDS011;1094;49.902;10.876;2023-06-05T05:25:13;19.70;;;18.60;;
2175;SDS011;1094;49.902;10.876;2023-06-05T05:27:40;19.23;;;18.23;;
2175;SDS011;1094;49.902;10.876;2023-06-05T05:30:07;19.93;;;18.40;;
2175;SDS011;1094;49.902;10.876;2023-06-05T05:32:33;18.77;;;17.80;;
2175;SDS011;1094;49.902;10.876;2023-06-05T05:34:59;18.90;;;17.90;;
2175;SDS011;1094;49.902;10.876;2023-06-05T05:37:25;18.70;;;17.80;;
2175;SDS011;1094;49.902;10.876;2023-06-05T05:39:52;18.77;;;17.73;;
2175;SDS011;1094;49.902;10.876;2023-06-05T05:42:19;19.03;;;17.77;;
2175;SDS011;1094;49.902;10.876;2023-06-05T05:45:00;20.40;;;19.30;;
2175;SDS011;1094;49.902;10.876;2023-06-05T05:47:26;19.20;;;18.10;;
2175;SDS011;1094;49.902;10.876;2023-06-05T05:49:52;19.13;;;18.10;;
2175;SDS011;1094;49.902;10.876;2023-06-05T05:52:18;19.30;;;18.20;;
2175;SDS011;1094;49.902;10.876;2023-06-05T05:54:45;19.60;;;18.40;;
2175;SDS011;1094;49.902;10.876;2023-06-05T05:57:11;19.47;;;18.37;;
2175;SDS011;1094;49.902;10.876;2023-06-05T05:59:37;19.17;;;18.17;;
2175;SDS011;1094;49.902;10.876;2023-06-05T06:02:03;19.30;;;18.10;;
2175;SDS011;1094;49.902;10.876;2023-06-05T06:04:34;18.97;;;17.97;;
2175;SDS011;1094;49.902;10.876;2023-06-05T06:07:00;26.83;;;19.63;;
2175;SDS011;1094;49.902;10.876;2023-06-05T06:09:26;18.90;;;17.70;;
2175;SDS011;1094;49.902;10.876;2023-06-05T06:11:52;18.30;;;17.30;;
2175;SDS011;1094;49.902;10.876;2023-06-05T06:14:21;19.30;;;17.80;;
2175;SDS011;1094;49.902;10.876;2023-06-05T06:16:47;18.50;;;17.20;;
2175;SDS011;1094;49.902;10.876;2023-06-05T06:19:14;18.67;;;17.27;;
2175;SDS011;1094;49.902;10.876;2023-06-05T06:21:41;18.40;;;16.97;;
2175;SDS011;1094;49.902;10.876;2023-06-05T06:24:07;17.88;;;16.77;;
2175;SDS011;1094;49.902;10.876;2023-06-05T06:26:34;17.27;;;15.93;;
2175;SDS011;1094;49.902;10.876;2023-06-05T06:29:03;17.07;;;15.80;;
2175;SDS011;1094;49.902;10.876;2023-06-05T06:31:29;16.60;;;15.60;;
2175;SDS011;1094;49.902;10.876;2023-06-05T06:33:55;17.10;;;15.90;;
2175;SDS011;1094;49.902;10.876;2023-06-05T06:36:22;16.93;;;15.63;;
2175;SDS011;1094;49.902;10.876;2023-06-05T06:38:48;17.50;;;16.40;;
2175;SDS011;1094;49.902;10.876;2023-06-05T06:41:15;17.20;;;16.00;;
2175;SDS011;1094;49.902;10.876;2023-06-05T06:43:41;16.43;;;15.53;;
2175;SDS011;1094;49.902;10.876;2023-06-05T06:46:07;16.37;;;15.57;;
2175;SDS011;1094;49.902;10.876;2023-06-05T06:48:33;17.20;;;15.90;;
2175;SDS011;1094;49.902;10.876;2023-06-05T06:50:59;16.80;;;15.53;;
2175;SDS011;1094;49.902;10.876;2023-06-05T06:53:25;19.93;;;16.20;;
2175;SDS011;1094;49.902;10.876;2023-06-05T06:55:51;17.10;;;16.10;;
2175;SDS011;1094;49.902;10.876;2023-06-05T06:58:17;17.87;;;16.50;;
2175;SDS011;1094;49.902;10.876;2023-06-05T07:00:43;17.00;;;15.90;;
2175;SDS011;1094;49.902;10.876;2023-06-05T07:03:09;16.77;;;15.47;;
2175;SDS011;1094;49.902;10.876;2023-06-05T07:05:35;16.83;;;15.40;;
2175;SDS011;1094;49.902;10.876;2023-06-05T07:08:01;17.63;;;16.10;;
2175;SDS011;1094;49.902;10.876;2023-06-05T07:10:28;17.10;;;16.03;;
2175;SDS011;1094;49.902;10.876;2023-06-05T07:12:54;16.30;;;15.40;;
2175;SDS011;1094;49.902;10.876;2023-06-05T07:15:20;16.40;;;15.33;;
2175;SDS011;1094;49.902;10.876;2023-06-05T07:17:46;16.43;;;15.43;;
2175;SDS011;1094;49.902;10.876;2023-06-05T07:20:12;16.53;;;15.60;;
2175;SDS011;1094;49.902;10.876;2023-06-05T07:22:42;18.30;;;16.80;;
2175;SDS011;1094;49.902;10.876;2023-06-05T07:25:09;16.63;;;15.70;;
2175;SDS011;1094;49.902;10.876;2023-06-05T07:27:37;16.67;;;15.60;;
2175;SDS011;1094;49.902;10.876;2023-06-05T07:30:05;17.60;;;15.80;;
2175;SDS011;1094;49.902;10.876;2023-06-05T07:32:31;16.57;;;15.53;;
2175;SDS011;1094;49.902;10.876;2023-06-05T07:34:57;16.33;;;15.30;;
2175;SDS011;1094;49.902;10.876;2023-06-05T07:37:23;16.20;;;15.27;;
2175;SDS011;1094;49.902;10.876;2023-06-05T07:39:49;16.05;;;15.05;;
2175;SDS011;1094;49.902;10.876;2023-06-05T07:42:16;15.43;;;14.50;;
2175;SDS011;1094;49.902;10.876;2023-06-05T07:44:42;17.65;;;15.90;;
2175;SDS011;1094;49.902;10.876;2023-06-05T07:47:08;15.70;;;14.90;;
2175;SDS011;1094;49.902;10.876;2023-06-05T07:49:34;15.55;;;14.57;;
2175;SDS011;1094;49.902;10.876;2023-06-05T07:52:00;16.27;;;14.98;;
2175;SDS011;1094;49.902;10.876;2023-06-05T07:54:26;15.57;;;14.63;;
2175;SDS011;1094;49.902;10.876;2023-06-05T07:56:52;15.88;;;14.65;;
2175;SDS011;1094;49.902;10.876;2023-06-05T07:59:19;15.95;;;14.90;;
2175;SDS011;1094;49.902;10.876;2023-06-05T08:01:50;18.20;;;17.20;;
2175;SDS011;1094;49.902;10.876;2023-06-05T08:04:16;15.20;;;14.40;;
2175;SDS011;1094;49.902;10.876;2023-06-05T08:06:42;15.40;;;14.50;;
2175;SDS011;1094;49.902;10.876;2023-06-05T08:09:10;15.32;;;14.52;;
2175;SDS011;1094;49.902;10.876;2023-06-05T08:11:37;15.00;;;14.30;;
2175;SDS011;1094;49.902;10.876;2023-06-05T08:14:04;15.90;;;14.90;;
2175;SDS011;1094;49.902;10.876;2023-06-05T08:16:34;15.00;;;14.20;;
2175;SDS011;1094;49.902;10.876;2023-06-05T08:19:01;15.00;;;14.30;;
2175;SDS011;1094;49.902;10.876;2023-06-05T08:21:27;15.73;;;14.32;;
2175;SDS011;1094;49.902;10.876;2023-06-05T08:23:53;15.02;;;14.32;;
2175;SDS011;1094;49.902;10.876;2023-06-05T08:26:19;15.43;;;14.40;;
2175;SDS011;1094;49.902;10.876;2023-06-05T08:28:45;16.30;;;14.98;;
2175;SDS011;1094;49.902;10.876;2023-06-05T08:31:11;16.20;;;15.15;;
2175;SDS011;1094;49.902;10.876;2023-06-05T08:33:37;15.93;;;15.10;;
2175;SDS011;1094;49.902;10.876;2023-06-05T08:36:04;15.80;;;14.80;;
2175;SDS011;1094;49.902;10.876;2023-06-05T08:38:31;15.95;;;15.15;;
2175;SDS011;1094;49.902;10.876;2023-06-05T08:41:00;16.23;;;15.23;;
2175;SDS011;1094;49.902;10.876;2023-06-05T08:43:27;15.98;;;14.93;;
2175;SDS011;1094;49.902;10.876;2023-06-05T08:45:55;15.90;;;15.00;;
2175;SDS011;1094;49.902;10.876;2023-06-05T08:48:22;16.58;;;15.40;;
2175;SDS011;1094;49.902;10.876;2023-06-05T08:50:49;15.73;;;14.95;;
2175;SDS011;1094;49.902;10.876;2023-06-05T08:53:16;15.95;;;14.98;;
2175;SDS011;1094;49.902;10.876;2023-06-05T08:55:46;16.40;;;15.50;;
2175;SDS011;1094;49.902;10.876;2023-06-05T08:58:13;15.73;;;14.93;;
2175;SDS011;1094;49.902;10.876;2023-06-05T09:00:39;16.58;;;15.68;;
2175;SDS011;1094;49.902;10.876;2023-06-05T09:03:05;15.85;;;14.95;;
2175;SDS011;1094;49.902;10.876;2023-06-05T09:05:32;16.05;;;15.15;;
2175;SDS011;1094;49.902;10.876;2023-06-05T09:07:58;15.43;;;14.65;;
2175;SDS011;1094;49.902;10.876;2023-06-05T09:10:25;16.25;;;15.38;;
2175;SDS011;1094;49.902;10.876;2023-06-05T09:12:55;15.73;;;15.02;;
2175;SDS011;1094;49.902;10.876;2023-06-05T09:15:25;15.10;;;14.30;;
2175;SDS011;1094;49.902;10.876;2023-06-05T09:18:01;15.73;;;14.93;;
2175;SDS011;1094;49.902;10.876;2023-06-05T09:20:28;16.38;;;15.38;;
2175;SDS011;1094;49.902;10.876;2023-06-05T09:22:56;15.90;;;15.20;;
2175;SDS011;1094;49.902;10.876;2023-06-05T09:25:22;15.50;;;14.80;;
2175;SDS011;1094;49.902;10.876;2023-06-05T09:28:07;15.35;;;14.45;;
2175;SDS011;1094;49.902;10.876;2023-06-05T09:30:33;15.65;;;14.88;;
2175;SDS011;1094;49.902;10.876;2023-06-05T09:33:07;15.52;;;14.82;;
2175;SDS011;1094;49.902;10.876;2023-06-05T09:35:34;15.93;;;15.02;;
2175;SDS011;1094;49.902;10.876;2023-06-05T09:38:03;16.30;;;15.18;;
2175;SDS011;1094;49.902;10.876;2023-06-05T09:40:38;16.55;;;15.68;;
2175;SDS011;1094;49.902;10.876;2023-06-05T09:43:16;16.27;;;15.27;;
2175;SDS011;1094;49.902;10.876;2023-06-05T09:45:47;16.75;;;15.48;;
2175;SDS011;1094;49.902;10.876;2023-06-05T09:48:14;15.98;;;15.18;;
2175;SDS011;1094;49.902;10.876;2023-06-05T09:50:40;17.23;;;16.02;;
2175;SDS011;1094;49.902;10.876;2023-06-05T09:53:06;16.92;;;15.90;;
2175;SDS011;1094;49.902;10.876;2023-06-05T09:55:35;16.70;;;15.80;;
2175;SDS011;1094;49.902;10.876;2023-06-05T09:58:02;17.10;;;16.20;;
2175;SDS011;1094;49.902;10.876;2023-06-05T10:00:38;16.83;;;15.93;;
2175;SDS011;1094;49.902;10.876;2023-06-05T10:03:07;17.20;;;16.20;;
2175;SDS011;1094;49.902;10.876;2023-06-05T10:05:36;17.07;;;16.13;;
2175;SDS011;1094;49.902;10.876;2023-06-05T10:08:03;16.83;;;16.00;;
2175;SDS011;1094;49.902;10.876;2023-06-05T10:10:29;16.97;;;16.17;;
2175;SDS011;1094;49.902;10.876;2023-06-05T10:12:55;17.70;;;16.70;;
2175;SDS011;1094;49.902;10.876;2023-06-05T10:15:22;18.20;;;17.10;;
2175;SDS011;1094;49.902;10.876;2023-06-05T10:17:48;18.00;;;16.90;;
2175;SDS011;1094;49.902;10.876;2023-06-05T10:20:14;17.87;;;16.90;;
2175;SDS011;1094;49.902;10.876;2023-06-05T10:22:41;17.40;;;16.23;;
2175;SDS011;1094;49.902;10.876;2023-06-05T10:25:07;18.40;;;16.87;;
2175;SDS011;1094;49.902;10.876;2023-06-05T10:30:16;18.90;;;17.90;;
2175;SDS011;1094;49.902;10.876;2023-06-05T10:40:34;18.40;;;17.50;;
2175;SDS011;1094;49.902;10.876;2023-06-05T10:45:45;19.47;;;18.27;;
2175;SDS011;1094;49.902;10.876;2023-06-05T10:48:11;18.30;;;17.20;;
2175;SDS011;1094;49.902;10.876;2023-06-05T10:50:37;18.77;;;17.73;;
2175;SDS011;1094;49.902;10.876;2023-06-05T10:53:03;18.70;;;17.40;;
2175;SDS011;1094;49.902;10.876;2023-06-05T10:55:40;17.97;;;16.87;;
2175;SDS011;1094;49.902;10.876;2023-06-05T10:58:10;17.43;;;16.50;;
2175;SDS011;1094;49.902;10.876;2023-06-05T11:00:39;17.90;;;16.83;;
2175;SDS011;1094;49.902;10.876;2023-06-05T11:03:52;19.10;;;18.00;;
2175;SDS011;1094;49.902;10.876;2023-06-05T11:06:18;19.57;;;18.40;;
2175;SDS011;1094;49.902;10.876;2023-06-05T11:09:05;18.80;;;17.70;;
2175;SDS011;1094;49.902;10.876;2023-06-05T11:11:54;19.20;;;17.90;;
2175;SDS011;1094;49.902;10.876;2023-06-05T11:14:17;18.50;;;17.50;;
2175;SDS011;1094;49.902;10.876;2023-06-05T11:16:44;18.37;;;17.47;;
2175;SDS011;1094;49.902;10.876;2023-06-05T11:24:30;17.97;;;16.97;;
2175;SDS011;1094;49.902;10.876;2023-06-05T11:26:56;17.00;;;16.17;;
2175;SDS011;1094;49.902;10.876;2023-06-05T11:29:22;18.70;;;17.27;;
2175;SDS011;1094;49.902;10.876;2023-06-05T11:31:51;18.47;;;17.37;;
2175;SDS011;1094;49.902;10.876;2023-06-05T11:34:17;19.73;;;18.30;;
2175;SDS011;1094;49.902;10.876;2023-06-05T11:36:43;19.67;;;18.37;;
2175;SDS011;1094;49.902;10.876;2023-06-05T11:39:15;20.57;;;19.27;;
2175;SDS011;1094;49.902;10.876;2023-06-05T11:41:45;20.10;;;18.97;;
2175;SDS011;1094;49.902;10.876;2023-06-05T11:44:11;21.27;;;20.00;;
2175;SDS011;1094;49.902;10.876;2023-06-05T11:46:41;21.30;;;20.00;;
2175;SDS011;1094;49.902;10.876;2023-06-05T11:49:24;21.27;;;19.93;;
2175;SDS011;1094;49.902;10.876;2023-06-05T11:51:50;22.47;;;20.43;;
2175;SDS011;1094;49.902;10.876;2023-06-05T11:54:29;23.27;;;21.40;;
2175;SDS011;1094;49.902;10.876;2023-06-05T11:56:59;21.60;;;20.10;;
2175;SDS011;1094;49.902;10.876;2023-06-05T11:59:32;21.10;;;19.90;;
2175;SDS011;1094;49.902;10.876;2023-06-05T12:01:58;21.67;;;20.23;;
2175;SDS011;1094;49.902;10.876;2023-06-05T12:04:25;21.53;;;20.10;;
2175;SDS011;1094;49.902;10.876;2023-06-05T12:06:51;21.57;;;20.23;;
2175;SDS011;1094;49.902;10.876;2023-06-05T12:09:18;21.77;;;20.00;;
2175;SDS011;1094;49.902;10.876;2023-06-05T12:11:44;21.60;;;20.30;;
2175;SDS011;1094;49.902;10.876;2023-06-05T12:14:11;21.50;;;20.10;;
2175;SDS011;1094;49.902;10.876;2023-06-05T12:16:38;21.03;;;19.73;;
2175;SDS011;1094;49.902;10.876;2023-06-05T12:19:14;21.57;;;20.07;;
2175;SDS011;1094;49.902;10.876;2023-06-05T12:21:42;21.77;;;20.00;;
2175;SDS011;1094;49.902;10.876;2023-06-05T12:24:08;21.37;;;19.97;;
2175;SDS011;1094;49.902;10.876;2023-06-05T12:29:27;22.07;;;20.77;;
2175;SDS011;1094;49.902;10.876;2023-06-05T12:31:54;21.70;;;20.30;;
2175;SDS011;1094;49.902;10.876;2023-06-05T12:34:40;21.20;;;20.00;;
2175;SDS011;1094;49.902;10.876;2023-06-05T12:37:06;21.27;;;19.87;;
2175;SDS011;1094;49.902;10.876;2023-06-05T12:39:33;22.13;;;20.53;;
2175;SDS011;1094;49.902;10.876;2023-06-05T12:42:00;22.27;;;20.90;;
2175;SDS011;1094;49.902;10.876;2023-06-05T12:44:26;22.37;;;21.07;;
2175;SDS011;1094;49.902;10.876;2023-06-05T12:46:52;22.77;;;21.10;;
2175;SDS011;1094;49.902;10.876;2023-06-05T12:49:18;22.10;;;20.40;;
2175;SDS011;1094;49.902;10.876;2023-06-05T12:51:44;21.67;;;20.43;;
2175;SDS011;1094;49.902;10.876;2023-06-05T12:54:10;21.20;;;19.90;;
2175;SDS011;1094;49.902;10.876;2023-06-05T12:56:36;23.53;;;21.60;;
2175;SDS011;1094;49.902;10.876;2023-06-05T12:59:03;22.33;;;20.73;;
2175;SDS011;1094;49.902;10.876;2023-06-05T13:01:29;21.97;;;20.37;;
2175;SDS011;1094;49.902;10.876;2023-06-05T13:03:56;22.00;;;20.70;;
2175;SDS011;1094;49.902;10.876;2023-06-05T13:06:22;22.07;;;20.40;;
2175;SDS011;1094;49.902;10.876;2023-06-05T13:08:48;21.53;;;20.23;;
2175;SDS011;1094;49.902;10.876;2023-06-05T13:11:14;21.43;;;20.13;;
2175;SDS011;1094;49.902;10.876;2023-06-05T13:13:40;22.43;;;20.73;;
2175;SDS011;1094;49.902;10.876;2023-06-05T13:16:06;21.43;;;20.23;;
2175;SDS011;1094;49.902;10.876;2023-06-05T13:18:33;22.57;;;20.73;;
2175;SDS011;1094;49.902;10.876;2023-06-05T13:21:00;22.10;;;20.77;;
2175;SDS011;1094;49.902;10.876;2023-06-05T13:23:26;21.90;;;20.50;;
2175;SDS011;1094;49.902;10.876;2023-06-05T13:25:52;22.37;;;21.07;;
2175;SDS011;1094;49.902;10.876;2023-06-05T13:28:18;21.23;;;19.80;;
2175;SDS011;1094;49.902;10.876;2023-06-05T13:30:46;21.93;;;20.53;;
2175;SDS011;1094;49.902;10.876;2023-06-05T13:33:12;20.80;;;19.70;;
2175;SDS011;1094;49.902;10.876;2023-06-05T13:35:38;20.93;;;19.80;;
2175;SDS011;1094;49.902;10.876;2023-06-05T13:38:05;20.97;;;19.57;;
2175;SDS011;1094;49.902;10.876;2023-06-05T13:40:31;22.57;;;21.23;;
2175;SDS011;1094;49.902;10.876;2023-06-05T13:42:58;21.20;;;20.00;;
2175;SDS011;1094;49.902;10.876;2023-06-05T13:45:24;21.43;;;20.23;;
2175;SDS011;1094;49.902;10.876;2023-06-05T13:47:50;21.53;;;20.13;;
2175;SDS011;1094;49.902;10.876;2023-06-05T13:50:17;22.77;;;21.37;;
2175;SDS011;1094;49.902;10.876;2023-06-05T13:52:45;22.17;;;20.77;;
2175;SDS011;1094;49.902;10.876;2023-06-05T13:55:11;22.20;;;20.83;;
2175;SDS011;1094;49.902;10.876;2023-06-05T13:57:37;21.93;;;20.53;;
2175;SDS011;1094;49.902;10.876;2023-06-05T14:00:03;21.33;;;20.13;;
2175;SDS011;1094;49.902;10.876;2023-06-05T14:02:30;20.90;;;19.70;;
2175;SDS011;1094;49.902;10.876;2023-06-05T14:04:56;21.87;;;20.57;;
2175;SDS011;1094;49.902;10.876;2023-06-05T14:07:22;21.77;;;20.43;;
2175;SDS011;1094;49.902;10.876;2023-06-05T14:09:48;22.13;;;20.50;;
2175;SDS011;1094;49.902;10.876;2023-06-05T14:12:14;21.23;;;19.83;;
2175;SDS011;1094;49.902;10.876;2023-06-05T14:14:41;21.23;;;20.03;;
2175;SDS011;1094;49.902;10.876;2023-06-05T14:17:07;22.87;;;21.37;;
2175;SDS011;1094;49.902;10.876;2023-06-05T14:19:33;22.07;;;20.67;;
2175;SDS011;1094;49.902;10.876;2023-06-05T14:21:59;22.57;;;21.03;;
2175;SDS011;1094;49.902;10.876;2023-06-05T14:24:25;22.50;;;21.00;;
2175;SDS011;1094;49.902;10.876;2023-06-05T14:26:52;21.73;;;20.33;;
2175;SDS011;1094;49.902;10.876;2023-06-05T14:29:19;22.20;;;20.70;;
2175;SDS011;1094;49.902;10.876;2023-06-05T14:31:45;21.90;;;20.57;;
2175;SDS011;1094;49.902;10.876;2023-06-05T14:34:11;21.93;;;20.53;;
2175;SDS011;1094;49.902;10.876;2023-06-05T14:36:36;21.87;;;20.47;;
2175;SDS011;1094;49.902;10.876;2023-06-05T14:39:02;21.93;;;20.23;;
2175;SDS011;1094;49.902;10.876;2023-06-05T14:41:29;22.30;;;20.90;;
2175;SDS011;1094;49.902;10.876;2023-06-05T14:43:55;20.70;;;19.50;;
2175;SDS011;1094;49.902;10.876;2023-06-05T14:46:21;22.50;;;21.00;;
2175;SDS011;1094;49.902;10.876;2023-06-05T14:48:47;22.00;;;20.70;;
2175;SDS011;1094;49.902;10.876;2023-06-05T14:51:13;22.57;;;21.07;;
2175;SDS011;1094;49.902;10.876;2023-06-05T14:53:39;21.73;;;20.47;;
2175;SDS011;1094;49.902;10.876;2023-06-05T14:56:05;23.43;;;21.10;;
2175;SDS011;1094;49.902;10.876;2023-06-05T14:58:31;21.67;;;20.27;;
2175;SDS011;1094;49.902;10.876;2023-06-05T15:00:57;21.30;;;19.90;;